createdAt,value
2022-10-06T00:01:06.315Z,81.89
2022-10-06T00:04:08.233Z,81.98
2022-10-06T00:07:10.044Z,82.01
2022-10-06T00:10:58.623Z,82.23
2022-10-06T00:14:00.830Z,82.06
2022-10-06T00:17:02.818Z,82.09
2022-10-06T00:20:05.453Z,82.27
2022-10-06T00:23:07.437Z,82.36
2022-10-06T00:26:16.887Z,82.24
2022-10-06T00:29:19.154Z,82.26
2022-10-06T00:32:21.100Z,82.48
2022-10-06T00:35:26.231Z,82.40
2022-10-06T00:38:29.354Z,82.41
2022-10-06T00:41:31.529Z,82.61
2022-10-06T00:44:33.316Z,82.84
2022-10-06T00:47:35.198Z,82.65
2022-10-06T00:50:37.962Z,82.57
2022-10-06T00:53:40.499Z,82.82
2022-10-06T00:56:42.754Z,82.67
2022-10-06T00:59:44.688Z,82.70
2022-10-06T01:02:57.148Z,82.73
2022-10-06T01:06:00.095Z,82.67
2022-10-06T01:09:01.819Z,82.81
2022-10-06T01:12:07.294Z,82.78
2022-10-06T01:15:09.690Z,82.78
2022-10-06T01:18:15.092Z,82.92
2022-10-06T01:21:34.538Z,82.98
2022-10-06T01:24:36.984Z,83.15
2022-10-06T01:27:42.279Z,83.10
2022-10-06T01:30:53.331Z,83.01
2022-10-06T01:33:57.907Z,82.99
2022-10-06T01:36:59.758Z,83.12
2022-10-06T01:40:02.693Z,83.07
2022-10-06T01:43:04.621Z,83.05
2022-10-06T01:46:06.545Z,82.74
2022-10-06T01:49:08.376Z,82.97
2022-10-06T01:52:10.252Z,83.12
2022-10-06T01:55:11.995Z,83.27
2022-10-06T01:58:14.448Z,83.16
2022-10-06T02:01:16.382Z,83.24
2022-10-06T02:04:18.628Z,83.35
2022-10-06T02:07:20.509Z,83.51
2022-10-06T02:10:22.567Z,83.27
2022-10-06T02:13:26.647Z,83.19
2022-10-06T02:16:30.168Z,83.20
2022-10-06T02:19:32.141Z,83.28
2022-10-06T02:22:38.674Z,83.20
2022-10-06T02:25:40.528Z,83.28
2022-10-06T02:28:44.038Z,83.25
2022-10-06T02:31:49.604Z,83.47
2022-10-06T02:34:52.506Z,83.46
2022-10-06T02:37:54.435Z,83.40
2022-10-06T02:40:57.628Z,83.43
2022-10-06T02:43:59.861Z,83.42
2022-10-06T02:47:01.732Z,83.39
2022-10-06T02:50:07.007Z,83.30
2022-10-06T02:53:09.550Z,83.47
2022-10-06T02:56:17.560Z,83.47
2022-10-06T02:59:19.448Z,83.49
2022-10-06T03:02:21.839Z,83.61
2022-10-06T03:05:23.810Z,83.42
2022-10-06T03:08:25.978Z,83.43
2022-10-06T03:11:32.800Z,83.58
2022-10-06T03:14:34.820Z,83.80
2022-10-06T03:17:36.665Z,83.65
2022-10-06T03:20:40.193Z,83.87
2022-10-06T03:23:47.721Z,84.02
2022-10-06T03:26:49.589Z,84.08
2022-10-06T03:29:53.533Z,84.07
2022-10-06T03:33:01.820Z,83.99
2022-10-06T03:36:07.104Z,83.88
2022-10-06T03:39:10.095Z,84.01
2022-10-06T03:42:12.877Z,84.18
2022-10-06T03:45:14.761Z,84.12
2022-10-06T03:48:16.600Z,84.24
2022-10-06T03:51:24.088Z,84.24
2022-10-06T03:54:26.112Z,84.42
2022-10-06T03:57:28.258Z,84.31
2022-10-06T04:00:30.356Z,84.43
2022-10-06T04:03:33.487Z,84.53
2022-10-06T04:06:36.410Z,84.71
2022-10-06T04:09:39.440Z,84.48
2022-10-06T04:12:41.605Z,84.34
2022-10-06T04:15:44.047Z,84.35
2022-10-06T04:18:49.629Z,84.36
2022-10-06T04:21:51.702Z,84.66
2022-10-06T04:24:56.722Z,84.30
2022-10-06T04:27:59.442Z,84.69
2022-10-06T04:31:01.812Z,85.00
2022-10-06T04:34:05.578Z,85.00
2022-10-06T04:37:08.066Z,85.27
2022-10-06T04:40:10.612Z,84.60
2022-10-06T04:43:13.534Z,84.62
2022-10-06T04:46:41.501Z,84.76
2022-10-06T04:49:40.944Z,84.68
2022-10-06T04:52:43.406Z,84.65
2022-10-06T04:55:45.315Z,85.05
2022-10-06T04:58:49.671Z,84.82
2022-10-06T05:01:51.832Z,84.72
2022-10-06T05:04:53.766Z,84.78
2022-10-06T05:07:59.467Z,84.60
2022-10-06T05:11:04.415Z,84.57
2022-10-06T05:14:06.732Z,84.54
2022-10-06T05:17:11.560Z,84.18
2022-10-06T05:20:14.099Z,84.16
2022-10-06T05:23:16.493Z,83.88
2022-10-06T05:26:24.051Z,83.40
2022-10-06T05:29:25.918Z,83.14
2022-10-06T05:32:28.529Z,82.90
2022-10-06T05:35:32.287Z,82.66
2022-10-06T05:38:34.694Z,82.31
2022-10-06T05:41:37.887Z,82.05
2022-10-06T05:44:42.266Z,81.53
2022-10-06T05:47:46.361Z,81.17
2022-10-06T05:50:58.594Z,80.39
2022-10-06T05:54:01.343Z,80.08
2022-10-06T05:57:03.982Z,79.45
2022-10-06T06:00:08.574Z,78.47
2022-10-06T06:03:14.815Z,77.69
2022-10-06T06:06:18.294Z,77.05
2022-10-06T06:09:21.657Z,76.12
2022-10-06T06:12:25.971Z,75.51
2022-10-06T06:16:00.246Z,74.12
2022-10-06T06:19:02.652Z,74.04
2022-10-06T06:22:04.504Z,73.52
2022-10-06T06:25:08.919Z,73.43
2022-10-06T06:28:10.930Z,73.08
2022-10-06T06:31:19.721Z,72.85
2022-10-06T06:34:23.519Z,72.35
2022-10-06T06:37:25.552Z,71.91
2022-10-06T06:40:27.635Z,71.33
2022-10-06T06:43:30.144Z,70.45
2022-10-06T06:46:57.470Z,68.04
2022-10-06T06:50:00.300Z,66.87
2022-10-06T06:53:04.277Z,66.38
2022-10-06T06:56:09.762Z,66.34
2022-10-06T06:59:13.245Z,65.60
2022-10-06T07:02:19.475Z,65.18
2022-10-06T07:05:24.403Z,64.43
2022-10-06T07:08:26.784Z,63.35
2022-10-06T07:11:34.969Z,63.04
2022-10-06T07:14:59.951Z,63.12
2022-10-06T07:18:22.902Z,62.37
2022-10-06T07:21:43.426Z,61.56
2022-10-06T07:25:04.968Z,60.90
2022-10-06T07:28:07.810Z,60.42
2022-10-06T07:31:13.093Z,59.21
2022-10-06T07:34:15.370Z,58.49
2022-10-06T07:37:18.485Z,58.55
2022-10-06T07:40:20.317Z,58.78
2022-10-06T07:43:22.703Z,58.41
2022-10-06T07:46:26.705Z,57.66
2022-10-06T07:49:33.609Z,56.72
2022-10-06T07:52:39.275Z,55.89
2022-10-06T07:55:45.380Z,56.38
2022-10-06T07:58:56.053Z,55.16
2022-10-06T08:01:57.914Z,54.90
2022-10-06T08:04:59.722Z,54.44
2022-10-06T08:08:01.677Z,54.26
2022-10-06T08:11:04.995Z,54.10
2022-10-06T08:14:06.945Z,53.64
2022-10-06T08:17:08.690Z,53.44
2022-10-06T08:20:12.351Z,52.44
2022-10-06T08:23:14.529Z,52.35
2022-10-06T08:26:18.671Z,51.62
2022-10-06T08:29:22.278Z,51.23
2022-10-06T08:32:24.597Z,51.16
2022-10-06T08:35:26.394Z,50.57
2022-10-06T08:38:28.206Z,49.82
2022-10-06T08:41:53.350Z,48.27
2022-10-06T08:45:07.543Z,47.73
2022-10-06T08:48:26.901Z,49.34
2022-10-06T08:51:50.294Z,49.67
2022-10-06T08:55:24.926Z,46.84
2022-10-06T08:58:47.018Z,49.07
2022-10-06T09:01:51.502Z,47.67
2022-10-06T09:04:53.517Z,48.88
2022-10-06T09:08:40.766Z,47.83
2022-10-06T09:11:49.838Z,48.87
2022-10-06T09:14:53.790Z,47.75
2022-10-06T09:18:10.712Z,48.30
2022-10-06T09:21:15.765Z,48.19
2022-10-06T09:24:46.223Z,48.69
2022-10-06T09:27:53.931Z,48.61
2022-10-06T09:30:56.388Z,48.76
2022-10-06T09:34:04.991Z,48.13
2022-10-06T09:37:11.525Z,48.94
2022-10-06T09:40:35.566Z,48.78
2022-10-06T09:43:41.832Z,48.95
2022-10-06T09:46:44.218Z,48.60
2022-10-06T09:50:02.770Z,47.60
2022-10-06T09:53:10.327Z,48.12
2022-10-06T09:56:19.514Z,47.79
2022-10-06T09:59:49.698Z,48.41
2022-10-06T10:02:58.011Z,48.49
2022-10-06T10:06:02.299Z,48.66
2022-10-06T10:09:21.908Z,49.34
2022-10-06T10:12:29.940Z,49.95
2022-10-06T10:15:52.381Z,50.43
2022-10-06T10:18:55.135Z,50.08
2022-10-06T10:21:57.325Z,49.66
2022-10-06T10:25:24.762Z,48.95
2022-10-06T10:28:48.158Z,48.76
2022-10-06T10:32:21.754Z,49.42
2022-10-06T10:35:27.691Z,46.95
2022-10-06T10:38:31.573Z,48.44
2022-10-06T10:41:45.056Z,48.87
2022-10-06T10:44:57.248Z,49.17
2022-10-06T10:47:59.698Z,47.04
2022-10-06T10:51:10.087Z,48.44
2022-10-06T10:54:25.150Z,48.30
2022-10-06T10:57:35.399Z,48.83
2022-10-06T11:00:43.195Z,48.85
2022-10-06T11:03:56.760Z,48.60
2022-10-06T11:07:02.295Z,49.30
2022-10-06T11:10:07.079Z,49.08
2022-10-06T11:13:28.308Z,49.42
2022-10-06T11:16:37.223Z,50.19
2022-10-06T11:19:52.278Z,49.63
2022-10-06T11:23:24.089Z,47.75
2022-10-06T11:27:08.300Z,49.86
2022-10-06T11:30:16.288Z,50.18
2022-10-06T11:33:26.717Z,49.77
2022-10-06T11:36:58.591Z,50.22
2022-10-06T11:40:03.870Z,50.39
2022-10-06T11:43:20.196Z,50.80
2022-10-06T11:46:31.251Z,50.52
2022-10-06T11:49:52.156Z,49.94
2022-10-06T11:52:54.219Z,49.85
2022-10-06T11:56:18.003Z,49.52
2022-10-06T11:59:28.721Z,49.18
2022-10-06T12:02:30.704Z,49.25
2022-10-06T12:18:06.764Z,49.56
2022-10-06T12:21:17.673Z,49.85
2022-10-06T12:24:22.449Z,49.74
2022-10-06T12:27:43.083Z,49.08
2022-10-06T12:31:18.111Z,49.17
2022-10-06T12:34:47.924Z,49.04
2022-10-06T12:37:54.408Z,48.99
2022-10-06T12:40:57.045Z,49.58
2022-10-06T12:44:00.709Z,50.04
2022-10-06T12:47:10.014Z,49.57
2022-10-06T12:50:22.129Z,49.47
2022-10-06T12:53:33.034Z,49.61
2022-10-06T12:56:38.520Z,49.86
2022-10-06T12:59:40.986Z,49.90
2022-10-06T13:02:44.014Z,50.50
2022-10-06T13:05:51.885Z,50.45
2022-10-06T13:09:14.644Z,50.23
2022-10-06T13:12:19.393Z,50.00
2022-10-06T13:15:34.508Z,50.55
2022-10-06T13:18:36.849Z,50.70
2022-10-06T13:21:38.650Z,50.19
2022-10-06T13:24:40.661Z,48.67
2022-10-06T13:27:50.535Z,49.42
2022-10-06T13:30:55.126Z,49.35
2022-10-06T13:34:04.844Z,48.27
2022-10-06T13:37:09.720Z,49.52
2022-10-06T13:40:21.896Z,49.16
2022-10-06T13:43:30.201Z,49.72
2022-10-06T13:46:40.137Z,49.90
2022-10-06T13:50:03.156Z,49.99
2022-10-06T13:53:05.264Z,49.39
2022-10-06T13:56:35.195Z,50.69
2022-10-06T13:59:38.758Z,50.47
2022-10-06T14:02:42.275Z,51.25
2022-10-06T14:05:46.165Z,50.69
2022-10-06T14:08:54.911Z,51.05
2022-10-06T14:12:18.120Z,51.71
2022-10-06T14:15:22.921Z,51.91
2022-10-06T14:18:46.795Z,52.01
2022-10-06T14:21:48.690Z,52.59
2022-10-06T14:24:51.394Z,52.88
2022-10-06T14:27:53.242Z,53.30
2022-10-06T14:30:57.627Z,53.55
2022-10-06T14:34:00.722Z,54.01
2022-10-06T14:37:03.645Z,54.49
2022-10-06T14:40:10.127Z,54.70
2022-10-06T14:43:14.606Z,55.34
2022-10-06T14:46:16.550Z,55.86
2022-10-06T14:49:18.690Z,56.25
2022-10-06T14:52:23.057Z,56.38
2022-10-06T14:55:29.775Z,56.48
2022-10-06T14:58:33.045Z,56.87
2022-10-06T15:01:37.388Z,57.23
2022-10-06T15:04:39.239Z,57.81
2022-10-06T15:08:00.191Z,58.21
2022-10-06T15:11:01.921Z,58.75
2022-10-06T15:14:04.688Z,59.33
2022-10-06T15:17:06.718Z,59.93
2022-10-06T15:20:09.183Z,60.44
2022-10-06T15:23:11.100Z,60.59
2022-10-06T15:26:31.408Z,60.69
2022-10-06T15:29:34.846Z,60.86
2022-10-06T15:32:37.455Z,61.05
2022-10-06T15:35:39.150Z,61.52
2022-10-06T15:38:40.929Z,61.69
2022-10-06T15:41:43.189Z,61.97
2022-10-06T15:44:44.944Z,61.98
2022-10-06T15:47:47.092Z,62.21
2022-10-06T15:50:48.912Z,62.46
2022-10-06T15:53:50.799Z,62.76
2022-10-06T15:56:54.902Z,63.24
2022-10-06T15:59:56.703Z,63.21
2022-10-06T16:02:58.760Z,63.74
2022-10-06T16:06:03.221Z,64.04
2022-10-06T16:09:05.008Z,64.13
2022-10-06T16:12:08.655Z,64.57
2022-10-06T16:15:10.823Z,65.00
2022-10-06T16:18:12.538Z,64.99
2022-10-06T16:21:14.323Z,65.51
2022-10-06T16:24:20.327Z,65.93
2022-10-06T16:27:22.190Z,66.13
2022-10-06T16:30:24.158Z,66.51
2022-10-06T16:33:26.021Z,66.66
2022-10-06T16:36:27.799Z,66.96
2022-10-06T16:39:29.660Z,67.26
2022-10-06T16:42:31.379Z,67.32
2022-10-06T16:45:33.740Z,67.61
2022-10-06T16:48:41.217Z,67.80
2022-10-06T16:51:45.784Z,67.97
2022-10-06T16:54:47.648Z,68.12
2022-10-06T16:57:49.467Z,68.42
2022-10-06T17:00:58.543Z,68.63
2022-10-06T17:04:09.283Z,69.06
2022-10-06T17:07:11.573Z,68.91
2022-10-06T17:10:20.501Z,69.14
2022-10-06T17:13:22.834Z,69.50
2022-10-06T17:16:28.848Z,69.70
2022-10-06T17:19:30.984Z,69.89
2022-10-06T17:22:32.790Z,70.10
2022-10-06T17:25:34.590Z,70.69
2022-10-06T17:28:38.454Z,70.47
2022-10-06T17:31:42.513Z,70.70
2022-10-06T17:34:45.350Z,70.89
2022-10-06T17:37:47.042Z,72.22
2022-10-06T17:40:48.832Z,71.38
2022-10-06T17:43:50.906Z,71.87
2022-10-06T17:46:56.283Z,72.10
2022-10-06T17:49:58.070Z,71.82
2022-10-06T17:52:59.865Z,72.14
2022-10-06T17:56:10.217Z,72.14
2022-10-06T17:59:17.634Z,72.22
2022-10-06T18:02:19.581Z,72.29
2022-10-06T18:05:21.495Z,72.42
2022-10-06T18:08:23.608Z,72.06
2022-10-06T18:11:48.039Z,71.86
2022-10-06T18:14:50.488Z,72.20
2022-10-06T18:17:53.473Z,72.41
2022-10-06T18:21:02.511Z,72.41
2022-10-06T18:24:16.529Z,72.79
2022-10-06T18:27:18.316Z,72.98
2022-10-06T18:30:20.138Z,73.25
2022-10-06T18:36:44.289Z,73.29
2022-10-06T18:39:46.777Z,73.14
2022-10-06T18:42:48.921Z,73.53
2022-10-06T18:46:09.623Z,73.58
2022-10-06T18:49:18.530Z,73.88
2022-10-06T18:52:21.777Z,73.79
2022-10-06T18:55:23.637Z,73.75
2022-10-06T18:58:25.473Z,73.99
2022-10-06T19:01:29.188Z,73.95
2022-10-06T19:04:35.154Z,74.06
2022-10-06T19:07:37.065Z,74.00
2022-10-06T19:10:58.845Z,74.18
2022-10-06T19:14:00.640Z,73.98
2022-10-06T19:17:14.823Z,74.34
2022-10-06T19:20:18.559Z,74.30
2022-10-06T19:23:20.620Z,74.61
2022-10-06T19:26:22.687Z,74.93
2022-10-06T19:29:27.023Z,75.13
2022-10-06T19:32:33.334Z,75.52
2022-10-06T19:35:35.148Z,75.66
2022-10-06T19:38:38.596Z,75.84
2022-10-06T19:41:59.671Z,75.87
2022-10-06T19:45:01.741Z,75.81
2022-10-06T19:48:04.421Z,75.77
2022-10-06T19:51:16.505Z,76.18
2022-10-06T19:54:19.382Z,75.74
2022-10-06T19:57:21.166Z,76.12
2022-10-06T20:00:23.120Z,76.08
2022-10-06T20:03:24.883Z,76.11
2022-10-06T20:06:26.728Z,76.34
2022-10-06T20:09:33.690Z,76.46
2022-10-06T20:12:35.869Z,76.67
2022-10-06T20:15:37.702Z,76.64
2022-10-06T20:18:41.832Z,77.04
2022-10-06T20:21:44.212Z,77.18
2022-10-06T20:24:47.773Z,77.32
2022-10-06T20:27:50.316Z,77.62
2022-10-06T20:30:52.122Z,77.56
2022-10-06T20:33:59.579Z,77.83
2022-10-06T20:37:03.796Z,77.74
2022-10-06T20:40:44.671Z,78.06
2022-10-06T20:43:46.522Z,78.04
2022-10-06T20:46:48.361Z,78.07
2022-10-06T20:49:55.302Z,78.24
2022-10-06T20:52:58.498Z,78.38
2022-10-06T20:56:00.333Z,78.13
2022-10-06T20:59:03.508Z,78.28
2022-10-06T21:02:06.057Z,78.42
2022-10-06T21:05:09.068Z,78.39
2022-10-06T21:08:11.115Z,78.47
2022-10-06T21:11:17.324Z,78.55
2022-10-06T21:14:19.183Z,78.92
2022-10-06T21:17:20.961Z,78.56
2022-10-06T21:20:22.726Z,78.64
2022-10-06T21:23:24.589Z,78.73
2022-10-06T21:26:27.954Z,78.90
2022-10-06T21:29:29.812Z,78.86
2022-10-06T21:32:32.690Z,78.92
2022-10-06T21:35:34.514Z,78.94
2022-10-06T21:38:39.947Z,78.98
2022-10-06T21:41:41.974Z,78.96
2022-10-06T21:44:43.835Z,79.05
2022-10-06T21:47:46.119Z,79.12
2022-10-06T21:50:54.483Z,79.04
2022-10-06T21:53:57.705Z,79.21
2022-10-06T21:56:59.590Z,79.29
2022-10-06T22:00:01.537Z,79.31
2022-10-06T22:03:03.742Z,79.65
2022-10-06T22:06:07.305Z,79.64
2022-10-06T22:09:14.244Z,79.66
2022-10-06T22:12:16.025Z,79.51
2022-10-06T22:15:17.971Z,79.69
2022-10-06T22:18:19.743Z,79.57
2022-10-06T22:21:22.918Z,79.82
2022-10-06T22:24:24.755Z,79.86
2022-10-06T22:27:26.591Z,79.86
2022-10-06T22:30:28.439Z,79.80
2022-10-06T22:33:30.656Z,79.70
2022-10-06T22:36:33.740Z,79.82
2022-10-06T22:39:35.567Z,79.77
2022-10-06T22:42:37.358Z,79.47
2022-10-06T22:45:39.523Z,79.59
2022-10-06T22:48:41.873Z,79.58
2022-10-06T22:51:45.018Z,79.66
2022-10-06T22:54:46.891Z,79.86
2022-10-06T22:57:48.794Z,79.68
2022-10-06T23:00:50.739Z,79.94
2022-10-06T23:03:55.022Z,79.95
2022-10-06T23:06:56.902Z,79.88
2022-10-06T23:09:58.719Z,79.86
2022-10-06T23:13:01.231Z,79.97
2022-10-06T23:16:09.128Z,80.07
2022-10-06T23:19:11.090Z,80.01
2022-10-06T23:22:12.856Z,79.94
2022-10-06T23:25:14.682Z,80.11
2022-10-06T23:28:16.546Z,80.18
2022-10-06T23:31:18.446Z,80.07
2022-10-06T23:34:20.290Z,80.43
2022-10-06T23:37:22.112Z,80.58
2022-10-06T23:40:23.935Z,80.63
2022-10-06T23:43:25.779Z,80.65
2022-10-06T23:46:27.590Z,80.70
2022-10-06T23:49:29.337Z,80.56
2022-10-06T23:52:31.127Z,80.38
2022-10-06T23:55:33.038Z,80.43
2022-10-06T23:58:34.959Z,80.66
